createdAt,value
2022-11-17T00:00:24.964Z,0
2022-11-17T00:01:24.954Z,0
2022-11-17T00:02:24.944Z,0
2022-11-17T00:03:24.931Z,0
2022-11-17T00:04:24.932Z,0
2022-11-17T00:05:24.914Z,0
2022-11-17T00:06:24.904Z,0
2022-11-17T00:07:24.889Z,0
2022-11-17T00:08:24.883Z,0
2022-11-17T00:09:24.867Z,0
2022-11-17T00:10:24.860Z,0
2022-11-17T00:11:24.861Z,0
2022-11-17T00:12:24.837Z,0
2022-11-17T00:13:24.831Z,0
2022-11-17T00:14:24.817Z,0
2022-11-17T00:15:24.805Z,0
2022-11-17T00:16:24.794Z,0
2022-11-17T00:17:24.799Z,0
2022-11-17T00:18:24.776Z,0
2022-11-17T00:19:24.760Z,0
2022-11-17T00:20:24.756Z,0
2022-11-17T00:21:24.763Z,0
2022-11-17T00:22:24.733Z,0
2022-11-17T00:23:24.717Z,0
2022-11-17T00:24:24.770Z,0
2022-11-17T00:25:24.713Z,0
2022-11-17T00:26:24.689Z,0
2022-11-17T00:27:24.678Z,0
2022-11-17T00:28:24.664Z,0
2022-11-17T00:29:24.657Z,0
2022-11-17T00:30:24.671Z,0
2022-11-17T00:31:24.641Z,0
2022-11-17T00:32:24.624Z,0
2022-11-17T00:33:24.615Z,0
2022-11-17T00:34:24.605Z,0
2022-11-17T00:35:24.594Z,0
2022-11-17T00:36:24.591Z,0
2022-11-17T00:37:24.568Z,0
2022-11-17T00:38:24.615Z,0
2022-11-17T00:39:24.554Z,0
2022-11-17T00:40:24.542Z,0
2022-11-17T00:41:24.528Z,0
2022-11-17T00:42:24.521Z,0
2022-11-17T00:43:24.506Z,0
2022-11-17T00:44:24.497Z,0
2022-11-17T00:45:24.522Z,0
2022-11-17T00:46:24.478Z,0
2022-11-17T00:47:24.467Z,0
2022-11-17T00:48:24.451Z,0
2022-11-17T00:49:24.440Z,0
2022-11-17T00:50:24.435Z,0
2022-11-17T00:51:24.424Z,0
2022-11-17T00:52:24.455Z,0
2022-11-17T00:53:24.401Z,0
2022-11-17T00:54:24.390Z,0
2022-11-17T00:55:24.377Z,0
2022-11-17T00:56:24.382Z,0
2022-11-17T00:57:24.383Z,0
2022-11-17T00:58:24.361Z,0
2022-11-17T00:59:24.342Z,0
2022-11-17T01:00:24.325Z,0
2022-11-17T01:01:24.317Z,0
2022-11-17T01:02:24.308Z,0
2022-11-17T01:03:24.336Z,0
2022-11-17T01:04:24.326Z,0
2022-11-17T01:05:24.395Z,0
2022-11-17T01:06:24.332Z,0
2022-11-17T01:07:24.307Z,0
2022-11-17T01:08:24.332Z,0
2022-11-17T01:09:24.231Z,0
2022-11-17T01:10:24.222Z,0
2022-11-17T01:11:24.233Z,0
2022-11-17T01:12:24.203Z,0
2022-11-17T01:13:24.193Z,0
2022-11-17T01:14:24.180Z,0
2022-11-17T01:15:24.173Z,0
2022-11-17T01:16:24.173Z,0
2022-11-17T01:17:24.151Z,0
2022-11-17T01:18:24.135Z,0
2022-11-17T01:19:24.126Z,0
2022-11-17T01:20:24.122Z,0
2022-11-17T01:21:24.107Z,0
2022-11-17T01:22:24.098Z,0
2022-11-17T01:23:24.106Z,0
2022-11-17T01:24:24.075Z,0
2022-11-17T01:25:24.071Z,0
2022-11-17T01:26:24.058Z,0
2022-11-17T01:27:24.044Z,0
2022-11-17T01:28:24.040Z,0
2022-11-17T01:29:24.030Z,0
2022-11-17T01:30:24.011Z,0
2022-11-17T01:31:24.013Z,0
2022-11-17T01:32:23.993Z,0
2022-11-17T01:33:23.981Z,0
2022-11-17T01:34:23.971Z,0
2022-11-17T01:35:23.975Z,0
2022-11-17T01:36:23.944Z,0
2022-11-17T01:37:23.933Z,0
2022-11-17T01:38:23.924Z,0
2022-11-17T01:39:23.915Z,0
2022-11-17T01:40:23.913Z,0
2022-11-17T01:41:23.904Z,0
2022-11-17T01:42:23.885Z,0
2022-11-17T01:43:23.876Z,0
2022-11-17T01:44:23.886Z,0
2022-11-17T01:45:23.854Z,0
2022-11-17T01:46:23.852Z,0
2022-11-17T01:47:23.831Z,0
2022-11-17T01:48:23.821Z,0
2022-11-17T01:49:23.808Z,0
2022-11-17T01:50:23.796Z,0
2022-11-17T01:51:23.799Z,0
2022-11-17T01:52:23.790Z,0
2022-11-17T01:53:23.767Z,0
2022-11-17T01:54:23.756Z,0
2022-11-17T01:55:23.746Z,0
2022-11-17T01:56:23.755Z,0
2022-11-17T01:57:23.721Z,0
2022-11-17T01:58:23.728Z,0
2022-11-17T01:59:23.699Z,0
2022-11-17T02:00:23.694Z,0
2022-11-17T02:01:23.686Z,0
2022-11-17T02:02:23.684Z,0
2022-11-17T02:03:23.656Z,0
2022-11-17T02:04:23.653Z,0
2022-11-17T02:05:23.640Z,0
2022-11-17T02:06:23.633Z,0
2022-11-17T02:07:23.617Z,0
2022-11-17T02:08:23.619Z,0
2022-11-17T02:09:23.594Z,0
2022-11-17T02:10:23.583Z,0
2022-11-17T02:11:23.583Z,0
2022-11-17T02:12:23.563Z,0
2022-11-17T02:13:23.569Z,0
2022-11-17T02:14:23.543Z,0
2022-11-17T02:15:23.540Z,0
2022-11-17T02:16:23.548Z,0
2022-11-17T02:17:23.510Z,0
2022-11-17T02:18:23.503Z,0
2022-11-17T02:19:23.492Z,0
2022-11-17T02:20:23.483Z,0
2022-11-17T02:21:23.467Z,0
2022-11-17T02:22:23.476Z,0
2022-11-17T02:23:23.452Z,0
2022-11-17T02:24:23.436Z,0
2022-11-17T02:25:23.427Z,0
2022-11-17T02:26:23.423Z,0
2022-11-17T02:27:23.407Z,0
2022-11-17T02:28:23.401Z,0
2022-11-17T02:29:23.384Z,0
2022-11-17T02:30:23.371Z,0
2022-11-17T02:31:23.364Z,0
2022-11-17T02:32:23.349Z,0
2022-11-17T02:33:23.339Z,0
2022-11-17T02:34:23.343Z,0
2022-11-17T02:35:23.322Z,0
2022-11-17T02:36:23.312Z,0
2022-11-17T02:37:23.299Z,0
2022-11-17T02:38:23.285Z,0
2022-11-17T02:39:23.276Z,0
2022-11-17T02:40:23.280Z,0
2022-11-17T02:41:23.259Z,0
2022-11-17T02:42:23.242Z,0
2022-11-17T02:43:23.233Z,0
2022-11-17T02:44:23.224Z,0
2022-11-17T02:45:23.212Z,0
2022-11-17T02:46:23.215Z,0
2022-11-17T02:47:23.189Z,0
2022-11-17T02:48:23.178Z,0
2022-11-17T02:49:23.171Z,0
2022-11-17T02:50:23.168Z,0
2022-11-17T02:51:23.153Z,0
2022-11-17T02:52:23.136Z,0
2022-11-17T02:53:23.133Z,0
2022-11-17T02:54:23.118Z,0
2022-11-17T02:55:23.110Z,0
2022-11-17T02:56:23.096Z,0
2022-11-17T02:57:23.087Z,0
2022-11-17T02:58:23.078Z,0
2022-11-17T02:59:23.077Z,0
2022-11-17T03:00:23.054Z,0
2022-11-17T03:01:23.042Z,0
2022-11-17T03:02:23.036Z,0
2022-11-17T03:03:23.031Z,0
2022-11-17T03:04:23.031Z,0
2022-11-17T03:05:23.000Z,0
2022-11-17T03:06:23.013Z,0
2022-11-17T03:07:22.983Z,0
2022-11-17T03:08:22.969Z,0
2022-11-17T03:09:22.956Z,0
2022-11-17T03:10:22.946Z,0
2022-11-17T03:11:22.942Z,0
2022-11-17T03:12:22.931Z,0
2022-11-17T03:13:22.918Z,0
2022-11-17T03:14:22.914Z,0
2022-11-17T03:15:22.892Z,0
2022-11-17T03:16:22.887Z,0
2022-11-17T03:17:22.877Z,0
2022-11-17T03:18:22.879Z,0
2022-11-17T03:19:22.855Z,0
2022-11-17T03:20:22.847Z,0
2022-11-17T03:21:22.831Z,0
2022-11-17T03:22:22.823Z,0
2022-11-17T03:23:22.824Z,0
2022-11-17T03:24:22.811Z,0
2022-11-17T03:25:22.791Z,0
2022-11-17T03:26:22.791Z,0
2022-11-17T03:27:22.776Z,0
2022-11-17T03:28:22.758Z,0
2022-11-17T03:29:22.751Z,0
2022-11-17T03:30:22.739Z,0
2022-11-17T03:31:22.728Z,0
2022-11-17T03:32:22.716Z,0
2022-11-17T03:33:22.709Z,0
2022-11-17T03:34:22.695Z,0
2022-11-17T03:35:22.691Z,0
2022-11-17T03:36:22.688Z,0
2022-11-17T03:37:22.682Z,0
2022-11-17T03:38:22.758Z,0
2022-11-17T03:39:22.647Z,0
2022-11-17T03:40:22.633Z,0
2022-11-17T03:41:22.628Z,0
2022-11-17T03:42:22.619Z,0
2022-11-17T03:43:22.605Z,0
2022-11-17T03:44:22.630Z,0
2022-11-17T03:45:22.623Z,0
2022-11-17T03:46:22.597Z,0
2022-11-17T03:47:22.558Z,0
2022-11-17T03:48:22.547Z,0
2022-11-17T03:49:22.555Z,0
2022-11-17T03:50:22.525Z,0
2022-11-17T03:51:22.512Z,0
2022-11-17T03:52:22.506Z,0
2022-11-17T03:53:22.495Z,0
2022-11-17T03:54:22.483Z,0
2022-11-17T03:55:22.502Z,0
2022-11-17T03:56:22.467Z,0
2022-11-17T03:57:22.455Z,0
2022-11-17T03:58:22.449Z,0
2022-11-17T03:59:22.431Z,0
2022-11-17T04:00:22.429Z,0
2022-11-17T04:01:22.417Z,0
2022-11-17T04:02:22.412Z,0
2022-11-17T04:03:22.395Z,0
2022-11-17T04:04:22.386Z,0
2022-11-17T04:05:22.387Z,0
2022-11-17T04:06:22.375Z,0
2022-11-17T04:07:22.356Z,0
2022-11-17T04:08:22.336Z,0
2022-11-17T04:09:22.343Z,0
2022-11-17T04:10:22.328Z,0
2022-11-17T04:11:22.309Z,0
2022-11-17T04:12:22.290Z,0
2022-11-17T04:13:22.285Z,0
2022-11-17T04:14:22.271Z,0
2022-11-17T04:15:22.266Z,0
2022-11-17T04:16:22.267Z,0
2022-11-17T04:17:22.245Z,0
2022-11-17T04:18:22.264Z,0
2022-11-17T04:19:22.226Z,0
2022-11-17T04:20:22.210Z,0
2022-11-17T04:21:22.201Z,0
2022-11-17T04:22:22.200Z,0
2022-11-17T04:23:22.177Z,0
2022-11-17T04:24:22.191Z,0
2022-11-17T04:25:22.162Z,0
2022-11-17T04:26:22.151Z,0
2022-11-17T04:27:22.131Z,0
2022-11-17T04:28:22.128Z,0
2022-11-17T04:29:22.119Z,0
2022-11-17T04:30:22.113Z,0
2022-11-17T04:31:22.095Z,0
2022-11-17T04:32:22.081Z,0
2022-11-17T04:33:22.089Z,0
2022-11-17T04:34:22.068Z,0
2022-11-17T04:35:22.054Z,0
2022-11-17T04:36:22.059Z,0
2022-11-17T04:37:22.042Z,0
2022-11-17T04:38:22.026Z,0
2022-11-17T04:39:22.017Z,0
2022-11-17T04:40:22.006Z,0
2022-11-17T04:41:21.999Z,0
2022-11-17T04:42:21.997Z,0
2022-11-17T04:43:21.961Z,0
2022-11-17T04:44:21.958Z,0
2022-11-17T04:45:21.988Z,0
2022-11-17T04:46:21.936Z,0
2022-11-17T04:47:21.924Z,0
2022-11-17T04:48:21.913Z,0
2022-11-17T04:49:21.898Z,0
2022-11-17T04:50:21.889Z,0
2022-11-17T04:51:21.887Z,0
2022-11-17T04:52:21.874Z,0
2022-11-17T04:53:21.874Z,0
2022-11-17T04:54:21.844Z,0
2022-11-17T04:55:21.854Z,0
2022-11-17T04:56:21.828Z,0
2022-11-17T04:57:21.815Z,0
2022-11-17T04:58:21.813Z,0
2022-11-17T04:59:21.806Z,0
2022-11-17T05:00:21.779Z,0
2022-11-17T05:01:21.768Z,0
2022-11-17T05:02:21.764Z,0
2022-11-17T05:03:21.753Z,0
2022-11-17T05:04:21.746Z,0
2022-11-17T05:05:21.737Z,0
2022-11-17T05:06:21.718Z,0
2022-11-17T05:07:21.715Z,0
2022-11-17T05:08:21.725Z,0
2022-11-17T05:09:21.688Z,0
2022-11-17T05:10:21.673Z,0
2022-11-17T05:11:21.667Z,0
2022-11-17T05:12:21.655Z,0
2022-11-17T05:13:21.648Z,0
2022-11-17T05:14:21.635Z,0
2022-11-17T05:15:21.626Z,0
2022-11-17T05:16:21.633Z,0
2022-11-17T05:17:21.622Z,0
2022-11-17T05:18:21.596Z,0
2022-11-17T05:19:21.581Z,0
2022-11-17T05:20:21.568Z,0
2022-11-17T05:21:21.558Z,0
2022-11-17T05:22:21.556Z,0
2022-11-17T05:23:21.537Z,0
2022-11-17T05:24:21.530Z,0
2022-11-17T05:25:21.520Z,0
2022-11-17T05:26:21.503Z,0
2022-11-17T05:27:21.499Z,0
2022-11-17T05:28:21.482Z,0
2022-11-17T05:29:21.480Z,0
2022-11-17T05:30:21.462Z,0
2022-11-17T05:31:21.446Z,0
2022-11-17T05:32:21.443Z,0
2022-11-17T05:33:21.430Z,0
2022-11-17T05:34:21.419Z,0
2022-11-17T05:35:21.443Z,0
2022-11-17T05:36:21.428Z,0
2022-11-17T05:37:21.385Z,0
2022-11-17T05:38:21.378Z,0
2022-11-17T05:39:21.361Z,0
2022-11-17T05:40:21.355Z,0
2022-11-17T05:41:21.345Z,0
2022-11-17T05:42:21.338Z,0
2022-11-17T05:43:21.329Z,0
2022-11-17T05:44:21.331Z,0
2022-11-17T05:45:21.336Z,0
2022-11-17T05:46:21.293Z,0
2022-11-17T05:47:21.278Z,0
2022-11-17T05:48:21.276Z,0
2022-11-17T05:49:21.270Z,0
2022-11-17T05:50:21.247Z,0
2022-11-17T05:51:21.236Z,0
2022-11-17T05:52:21.221Z,0
2022-11-17T05:53:21.210Z,0
2022-11-17T05:54:21.199Z,0
2022-11-17T05:55:21.194Z,0
2022-11-17T05:56:21.188Z,0
2022-11-17T05:57:21.171Z,0
2022-11-17T05:58:21.163Z,0
2022-11-17T05:59:21.147Z,0
2022-11-17T06:00:21.137Z,0
2022-11-17T06:01:21.129Z,0
2022-11-17T06:02:21.120Z,0
2022-11-17T06:03:21.119Z,0
2022-11-17T06:04:21.094Z,0
2022-11-17T06:05:21.087Z,0
2022-11-17T06:06:21.069Z,0
2022-11-17T06:07:21.081Z,0
2022-11-17T06:08:21.103Z,0
2022-11-17T06:09:21.047Z,0
2022-11-17T06:10:21.032Z,0
2022-11-17T06:11:21.017Z,0
2022-11-17T06:12:21.007Z,0
2022-11-17T06:13:20.998Z,0
2022-11-17T06:14:20.990Z,0
2022-11-17T06:15:20.976Z,0
2022-11-17T06:16:20.974Z,0
2022-11-17T06:17:20.958Z,0
2022-11-17T06:18:20.945Z,0
2022-11-17T06:19:20.930Z,0
2022-11-17T06:20:20.934Z,0
2022-11-17T06:21:20.912Z,0
2022-11-17T06:22:20.905Z,0
2022-11-17T06:23:20.888Z,0
2022-11-17T06:24:20.885Z,0
2022-11-17T06:25:20.864Z,0
2022-11-17T06:26:20.858Z,0
2022-11-17T06:27:20.847Z,0
2022-11-17T06:28:20.839Z,0
2022-11-17T06:29:20.822Z,0
2022-11-17T06:30:20.821Z,0
2022-11-17T06:31:20.804Z,0
2022-11-17T06:32:20.795Z,0
2022-11-17T06:33:20.787Z,0
2022-11-17T06:34:20.770Z,0
2022-11-17T06:35:20.763Z,0
2022-11-17T06:36:20.752Z,0
2022-11-17T06:37:20.739Z,0
2022-11-17T06:38:20.730Z,0
2022-11-17T06:39:20.718Z,0
2022-11-17T06:40:20.707Z,0
2022-11-17T06:41:20.697Z,0
2022-11-17T06:42:20.688Z,0
2022-11-17T06:43:20.685Z,0
2022-11-17T06:44:20.660Z,0
2022-11-17T06:45:20.657Z,0
2022-11-17T06:46:20.647Z,0
2022-11-17T06:47:20.631Z,0
2022-11-17T06:48:20.619Z,0
2022-11-17T06:49:20.610Z,0
2022-11-17T06:50:20.601Z,0
2022-11-17T06:51:20.619Z,0
2022-11-17T06:52:20.576Z,0
2022-11-17T06:53:20.583Z,0
2022-11-17T06:54:20.564Z,0
2022-11-17T06:55:20.573Z,0
2022-11-17T06:56:20.547Z,0
2022-11-17T06:57:20.534Z,0
2022-11-17T06:58:20.521Z,0
2022-11-17T06:59:20.518Z,0
2022-11-17T07:00:20.519Z,5.62
2022-11-17T07:01:20.493Z,5.62
2022-11-17T07:02:20.485Z,5.62
2022-11-17T07:03:20.471Z,5.62
2022-11-17T07:04:20.469Z,5.62
2022-11-17T07:05:20.449Z,5.62
2022-11-17T07:06:20.450Z,5.62
2022-11-17T07:07:20.436Z,5.62
2022-11-17T07:08:20.417Z,5.62
2022-11-17T07:09:20.405Z,5.62
2022-11-17T07:10:20.393Z,5.62
2022-11-17T07:11:20.383Z,5.62
2022-11-17T07:12:20.374Z,5.62
2022-11-17T07:13:20.374Z,0
2022-11-17T07:14:20.372Z,0
2022-11-17T07:15:20.354Z,5.62
2022-11-17T07:16:20.353Z,5.62
2022-11-17T07:17:20.337Z,5.62
2022-11-17T07:18:20.329Z,5.62
2022-11-17T07:19:20.299Z,5.62
2022-11-17T07:20:20.282Z,5.62
2022-11-17T07:21:20.282Z,5.62
2022-11-17T07:22:20.265Z,5.62
2022-11-17T07:23:20.263Z,5.62
2022-11-17T07:24:20.240Z,5.62
2022-11-17T07:25:20.239Z,5.62
2022-11-17T07:26:20.224Z,5.62
2022-11-17T07:27:20.208Z,5.62
2022-11-17T07:28:20.214Z,5.62
2022-11-17T07:29:20.204Z,5.62
2022-11-17T07:30:20.178Z,5.62
2022-11-17T07:31:20.185Z,5.62
2022-11-17T07:32:20.185Z,5.62
2022-11-17T07:33:20.181Z,5.62
2022-11-17T07:34:20.135Z,11.25
2022-11-17T07:35:20.181Z,11.25
2022-11-17T07:36:20.175Z,11.25
2022-11-17T07:37:20.203Z,16.88
2022-11-17T07:38:20.126Z,16.88
2022-11-17T07:39:20.084Z,16.88
2022-11-17T07:40:20.084Z,22.5
2022-11-17T07:41:20.059Z,16.88
2022-11-17T07:42:20.054Z,16.88
2022-11-17T07:43:20.049Z,16.88
2022-11-17T07:44:20.067Z,16.88
2022-11-17T07:45:20.028Z,16.88
2022-11-17T07:46:20.020Z,11.25
2022-11-17T07:47:19.997Z,11.25
2022-11-17T07:48:19.987Z,11.25
2022-11-17T07:49:19.980Z,5.62
2022-11-17T07:50:19.965Z,5.62
2022-11-17T07:51:19.954Z,5.62
2022-11-17T07:52:19.967Z,5.62
2022-11-17T07:53:19.932Z,11.25
2022-11-17T07:54:19.918Z,11.25
2022-11-17T07:55:19.919Z,5.62
2022-11-17T07:56:19.906Z,5.62
2022-11-17T07:57:19.918Z,5.62
2022-11-17T07:58:19.885Z,5.62
2022-11-17T07:59:19.877Z,5.62
2022-11-17T08:00:19.857Z,11.25
2022-11-17T08:01:19.867Z,11.25
2022-11-17T08:02:19.919Z,11.25
2022-11-17T08:03:19.843Z,11.25
2022-11-17T08:04:19.818Z,11.25
2022-11-17T08:05:19.802Z,11.25
2022-11-17T08:06:19.808Z,11.25
2022-11-17T08:07:19.834Z,11.25
2022-11-17T08:08:19.783Z,16.88
2022-11-17T08:09:19.763Z,22.5
2022-11-17T08:10:19.754Z,22.5
2022-11-17T08:11:19.753Z,22.5
2022-11-17T08:12:19.732Z,22.5
2022-11-17T08:13:19.763Z,22.5
2022-11-17T08:14:19.726Z,33.75
2022-11-17T08:15:19.706Z,33.75
2022-11-17T08:16:19.707Z,33.75
2022-11-17T08:17:19.673Z,33.75
2022-11-17T08:18:19.790Z,33.75
2022-11-17T08:19:19.668Z,33.75
2022-11-17T08:20:19.655Z,33.75
2022-11-17T08:21:19.642Z,33.75
2022-11-17T08:22:19.635Z,33.75
2022-11-17T08:23:19.636Z,33.75
2022-11-17T08:24:19.643Z,33.75
2022-11-17T08:25:19.643Z,33.75
2022-11-17T08:26:19.837Z,33.75
2022-11-17T08:27:19.599Z,33.75
2022-11-17T08:28:19.570Z,33.75
2022-11-17T08:29:19.727Z,33.75
2022-11-17T08:30:20.593Z,33.75
2022-11-17T08:31:19.639Z,33.75
2022-11-17T08:32:19.546Z,33.75
2022-11-17T08:33:20.606Z,33.75
2022-11-17T08:34:19.571Z,33.75
2022-11-17T08:35:19.538Z,33.75
2022-11-17T08:36:19.575Z,33.75
2022-11-17T08:37:19.575Z,33.75
2022-11-17T08:38:19.474Z,28.12
2022-11-17T08:39:19.466Z,28.12
2022-11-17T08:40:19.484Z,33.75
2022-11-17T08:41:20.443Z,33.75
2022-11-17T08:42:19.407Z,33.75
2022-11-17T08:43:19.408Z,33.75
2022-11-17T08:44:19.422Z,28.12
2022-11-17T08:45:19.442Z,28.12
2022-11-17T08:46:19.373Z,28.12
2022-11-17T08:47:19.376Z,28.12
2022-11-17T08:48:19.423Z,28.12
2022-11-17T08:49:19.455Z,33.75
2022-11-17T08:50:19.331Z,33.75
2022-11-17T08:51:19.414Z,28.12
2022-11-17T08:52:19.480Z,28.12
2022-11-17T08:53:19.395Z,28.12
2022-11-17T08:54:19.447Z,28.12
2022-11-17T08:55:19.330Z,28.12
2022-11-17T08:56:19.528Z,28.12
2022-11-17T08:57:19.262Z,28.12
2022-11-17T08:58:19.272Z,28.12
2022-11-17T08:59:19.293Z,33.75
2022-11-17T09:00:20.223Z,39.38
2022-11-17T09:01:19.244Z,39.38
2022-11-17T09:02:19.252Z,39.38
2022-11-17T09:03:19.235Z,39.38
2022-11-17T09:04:19.296Z,45
2022-11-17T09:05:19.248Z,45
2022-11-17T09:06:19.211Z,45
2022-11-17T09:07:19.660Z,39.38
2022-11-17T09:08:20.303Z,33.75
2022-11-17T09:09:19.171Z,33.75
2022-11-17T09:10:19.151Z,33.75
2022-11-17T09:11:19.211Z,28.12
2022-11-17T09:12:19.108Z,28.12
2022-11-17T09:13:19.130Z,22.5
2022-11-17T09:14:19.252Z,16.88
2022-11-17T09:15:19.135Z,16.88
2022-11-17T09:16:19.079Z,16.88
2022-11-17T09:17:19.056Z,11.25
2022-11-17T09:18:19.040Z,11.25
2022-11-17T09:19:19.079Z,11.25
2022-11-17T09:20:19.033Z,11.25
2022-11-17T09:21:19.072Z,11.25
2022-11-17T09:22:19.945Z,16.88
2022-11-17T09:23:18.995Z,16.88
2022-11-17T09:24:19.054Z,16.88
2022-11-17T09:25:19.022Z,22.5
2022-11-17T09:26:19.004Z,28.12
2022-11-17T09:27:18.990Z,28.12
2022-11-17T09:28:18.933Z,28.12
2022-11-17T09:29:18.949Z,33.75
2022-11-17T09:30:19.026Z,33.75
2022-11-17T09:31:18.971Z,33.75
2022-11-17T09:32:19.885Z,33.75
2022-11-17T09:33:18.884Z,33.75
2022-11-17T09:34:18.862Z,33.75
2022-11-17T09:35:18.862Z,39.38
2022-11-17T09:36:18.863Z,33.75
2022-11-17T09:37:18.828Z,33.75
2022-11-17T09:38:18.860Z,28.12
2022-11-17T09:39:18.819Z,28.12
2022-11-17T09:40:18.835Z,28.12
2022-11-17T09:41:18.816Z,28.12
2022-11-17T09:42:18.978Z,28.12
2022-11-17T09:43:18.866Z,28.12
2022-11-17T17:00:16.778Z,0
2022-11-17T17:01:19.657Z,0
2022-11-17T17:02:16.734Z,0
2022-11-17T17:03:17.567Z,0
2022-11-17T17:04:16.727Z,0
2022-11-17T17:05:16.551Z,0
2022-11-17T17:06:16.547Z,0
2022-11-17T17:07:16.853Z,0
2022-11-17T17:08:16.562Z,0
2022-11-17T17:09:17.857Z,0
2022-11-17T17:10:17.771Z,0
2022-11-17T17:11:17.589Z,0
2022-11-17T17:12:16.498Z,0
2022-11-17T17:13:16.466Z,0
2022-11-17T17:14:16.436Z,0
2022-11-17T17:15:16.424Z,0
2022-11-17T17:16:16.417Z,0
2022-11-17T17:17:16.406Z,0
2022-11-17T17:18:16.393Z,0
2022-11-17T17:19:16.411Z,0
2022-11-17T17:20:16.436Z,0
2022-11-17T17:21:16.414Z,0
2022-11-17T17:22:16.360Z,0
2022-11-17T17:23:16.350Z,0
2022-11-17T17:24:16.362Z,0
2022-11-17T17:25:16.327Z,0
2022-11-17T17:26:16.303Z,0
2022-11-17T17:27:16.303Z,0
2022-11-17T17:28:16.323Z,0
2022-11-17T17:29:16.304Z,0
2022-11-17T17:30:16.328Z,0
2022-11-17T17:31:16.266Z,0
2022-11-17T17:32:16.239Z,0
2022-11-17T17:33:16.231Z,0
2022-11-17T17:34:16.225Z,0
2022-11-17T17:35:16.224Z,0
2022-11-17T17:36:16.326Z,0
2022-11-17T17:37:16.197Z,0
2022-11-17T17:38:16.176Z,0
2022-11-17T17:39:16.171Z,0
2022-11-17T17:40:16.183Z,0
2022-11-17T17:41:16.141Z,0
2022-11-17T17:42:16.158Z,0
2022-11-17T17:43:16.125Z,0
2022-11-17T17:44:16.129Z,0
2022-11-17T17:45:16.111Z,0
2022-11-17T17:46:16.120Z,0
2022-11-17T17:47:16.078Z,0
2022-11-17T17:48:16.080Z,0
2022-11-17T17:49:16.088Z,0
2022-11-17T17:50:16.179Z,0
2022-11-17T17:51:16.039Z,0
2022-11-17T17:52:16.039Z,0
2022-11-17T17:53:16.017Z,0
2022-11-17T17:54:16.009Z,0
2022-11-17T17:55:16.253Z,0
2022-11-17T17:56:15.987Z,0
2022-11-17T17:57:15.986Z,0
2022-11-17T17:58:15.967Z,0
2022-11-17T17:59:15.956Z,0
2022-11-17T18:00:15.964Z,0
2022-11-17T18:01:15.967Z,0
2022-11-17T18:02:15.943Z,0
2022-11-17T18:03:15.926Z,0
2022-11-17T18:04:15.916Z,0
2022-11-17T18:05:15.914Z,0
2022-11-17T18:06:15.883Z,0
2022-11-17T18:07:15.868Z,0
2022-11-17T18:08:15.885Z,0
2022-11-17T18:09:15.845Z,0
2022-11-17T18:10:15.862Z,0
2022-11-17T18:12:47.467Z,0
2022-11-17T18:13:48.340Z,0
2022-11-17T18:14:47.481Z,0
2022-11-17T18:15:47.448Z,0
2022-11-17T18:16:51.455Z,0
2022-11-17T18:17:47.373Z,0
2022-11-17T18:18:47.312Z,0
2022-11-17T18:19:47.235Z,0
2022-11-17T18:20:47.247Z,0
2022-11-17T18:21:47.212Z,0
2022-11-17T18:22:47.216Z,0
2022-11-17T18:23:47.202Z,0
2022-11-17T18:24:47.194Z,0
2022-11-17T18:25:47.177Z,0
2022-11-17T18:26:47.162Z,0
2022-11-17T18:27:47.174Z,0
2022-11-17T18:28:47.146Z,0
2022-11-17T18:29:47.143Z,0
2022-11-17T18:30:47.128Z,0
2022-11-17T18:31:47.317Z,0
2022-11-17T18:32:47.102Z,0
2022-11-17T18:33:47.096Z,0
2022-11-17T18:34:47.106Z,0
2022-11-17T18:35:47.075Z,0
2022-11-17T18:36:48.076Z,0
2022-11-17T18:37:47.051Z,0
2022-11-17T18:38:47.042Z,0
2022-11-17T18:39:47.026Z,0
2022-11-17T18:40:47.039Z,0
2022-11-17T18:41:47.015Z,0
2022-11-17T18:42:47.001Z,0
2022-11-17T18:43:46.980Z,0
2022-11-17T18:44:46.975Z,0
2022-11-17T18:45:46.963Z,0
2022-11-17T18:46:46.956Z,0
2022-11-17T18:47:46.945Z,0
2022-11-17T18:48:46.933Z,0
2022-11-17T18:49:46.919Z,0
2022-11-17T18:50:46.923Z,0
2022-11-17T18:51:46.898Z,0
2022-11-17T18:52:46.898Z,0
2022-11-17T18:53:46.897Z,0
2022-11-17T18:54:46.902Z,0
2022-11-17T18:55:46.861Z,0
2022-11-17T18:56:46.852Z,0
2022-11-17T18:57:46.869Z,0
2022-11-17T18:58:46.839Z,0
2022-11-17T18:59:46.835Z,0
2022-11-17T19:00:46.829Z,0
2022-11-17T19:01:46.861Z,0
2022-11-17T19:02:46.855Z,0
2022-11-17T19:03:46.794Z,0
2022-11-17T19:04:46.766Z,0
2022-11-17T19:05:46.759Z,0
2022-11-17T19:06:46.759Z,0
2022-11-17T19:07:46.737Z,0
2022-11-17T19:08:46.729Z,0
2022-11-17T19:09:46.716Z,0
2022-11-17T19:10:46.738Z,0
2022-11-17T19:11:46.695Z,0
2022-11-17T19:12:46.698Z,0
2022-11-17T19:13:46.678Z,0
2022-11-17T19:14:46.663Z,0
2022-11-17T19:15:46.660Z,0
2022-11-17T19:16:46.645Z,0
2022-11-17T19:17:46.633Z,0
2022-11-17T19:18:46.622Z,0
2022-11-17T19:19:46.608Z,0
2022-11-17T19:20:46.614Z,0
2022-11-17T19:21:46.594Z,0
2022-11-17T19:22:46.579Z,0
2022-11-17T19:23:46.598Z,0
2022-11-17T19:24:46.556Z,0
2022-11-17T19:25:46.546Z,0
2022-11-17T19:26:46.541Z,0
2022-11-17T19:27:46.548Z,0
2022-11-17T19:28:46.525Z,0
2022-11-17T19:29:46.538Z,0
2022-11-17T19:30:46.506Z,0
2022-11-17T19:31:46.508Z,0
2022-11-17T19:32:46.477Z,0
2022-11-17T19:33:46.467Z,0
2022-11-17T19:34:46.469Z,0
2022-11-17T19:35:46.448Z,0
2022-11-17T19:36:46.430Z,0
2022-11-17T19:37:46.446Z,0
2022-11-17T19:38:46.434Z,0
2022-11-17T19:39:46.410Z,0
2022-11-17T19:40:46.391Z,0
2022-11-17T19:41:46.438Z,0
2022-11-17T19:42:46.374Z,0
2022-11-17T19:43:46.413Z,0
2022-11-17T19:44:46.412Z,0
2022-11-17T19:45:46.424Z,0
2022-11-17T19:46:46.403Z,0
2022-11-17T19:47:46.409Z,0
2022-11-17T19:48:46.413Z,0
2022-11-17T19:49:46.349Z,0
2022-11-17T19:50:46.296Z,0
2022-11-17T19:51:46.270Z,0
2022-11-17T19:52:46.263Z,0
2022-11-17T19:53:46.278Z,0
2022-11-17T19:54:46.238Z,0
2022-11-17T19:55:46.255Z,0
2022-11-17T19:56:46.265Z,0
2022-11-17T19:57:46.304Z,0
2022-11-17T19:58:46.199Z,0
2022-11-17T19:59:46.191Z,0
2022-11-17T20:00:46.174Z,0
2022-11-17T20:01:46.177Z,0
2022-11-17T20:02:46.156Z,0
2022-11-17T20:03:46.158Z,0
2022-11-17T20:04:46.144Z,0
2022-11-17T20:05:46.130Z,0
2022-11-17T20:06:46.129Z,0
2022-11-17T20:07:46.123Z,0
2022-11-17T20:08:46.110Z,0
2022-11-17T20:09:46.123Z,0
2022-11-17T20:10:46.072Z,0
2022-11-17T20:11:46.078Z,0
2022-11-17T20:12:46.063Z,0
2022-11-17T20:13:46.086Z,0
2022-11-17T20:14:46.029Z,0
2022-11-17T20:15:46.019Z,0
2022-11-17T20:16:46.011Z,0
2022-11-17T20:17:45.996Z,0
2022-11-17T20:18:45.988Z,0
2022-11-17T20:19:45.980Z,0
2022-11-17T20:20:45.975Z,0
2022-11-17T20:21:45.982Z,0
2022-11-17T20:22:45.944Z,0
2022-11-17T20:23:45.947Z,0
2022-11-17T20:24:45.936Z,0
2022-11-17T20:25:45.918Z,0
2022-11-17T20:26:45.941Z,0
2022-11-17T20:27:45.890Z,0
2022-11-17T20:28:45.886Z,0
2022-11-17T20:29:45.920Z,0
2022-11-17T20:30:45.859Z,0
2022-11-17T20:31:45.859Z,0
2022-11-17T20:32:45.852Z,0
2022-11-17T20:33:45.863Z,0
2022-11-17T20:34:45.818Z,0
2022-11-17T20:35:45.820Z,0
2022-11-17T20:36:45.822Z,0
2022-11-17T20:37:45.787Z,0
2022-11-17T20:38:45.842Z,0
2022-11-17T20:39:45.769Z,0
2022-11-17T20:40:45.759Z,0
2022-11-17T20:41:45.765Z,0
2022-11-17T20:42:45.729Z,0
2022-11-17T20:43:45.758Z,0
2022-11-17T20:44:45.735Z,0
2022-11-17T20:45:45.861Z,0
2022-11-17T20:46:45.696Z,0
2022-11-17T20:47:45.694Z,0
2022-11-17T20:48:45.677Z,0
2022-11-17T20:49:45.667Z,0
2022-11-17T20:50:45.668Z,0
2022-11-17T20:51:45.637Z,0
2022-11-17T20:52:45.632Z,0
2022-11-17T20:53:45.634Z,0
2022-11-17T20:54:45.608Z,0
2022-11-17T20:55:45.621Z,0
2022-11-17T20:56:45.619Z,0
2022-11-17T20:57:45.574Z,0
2022-11-17T20:58:45.605Z,0
2022-11-17T20:59:45.573Z,0
2022-11-17T21:00:45.549Z,0
2022-11-17T21:01:45.531Z,0
2022-11-17T21:02:45.559Z,0
2022-11-17T21:03:45.518Z,0
2022-11-17T21:04:45.511Z,0
2022-11-17T21:05:45.496Z,0
2022-11-17T21:06:45.477Z,0
2022-11-17T21:07:45.473Z,0
2022-11-17T21:08:45.461Z,0
2022-11-17T21:09:45.458Z,0
2022-11-17T21:10:45.460Z,0
2022-11-17T21:11:45.445Z,0
2022-11-17T21:12:45.441Z,0
2022-11-17T21:13:45.412Z,0
2022-11-17T21:14:45.408Z,0
2022-11-17T21:15:45.424Z,0
2022-11-17T21:16:45.379Z,0
2022-11-17T21:17:45.365Z,0
2022-11-17T21:18:45.358Z,0
2022-11-17T21:19:45.362Z,0
2022-11-17T21:20:45.337Z,0
2022-11-17T21:21:45.351Z,0
2022-11-17T21:22:45.314Z,0
2022-11-17T21:23:45.309Z,0
2022-11-17T21:24:45.309Z,0
2022-11-17T21:25:45.296Z,0
2022-11-17T21:26:45.279Z,0
2022-11-17T21:27:45.260Z,0
2022-11-17T21:28:45.272Z,0
2022-11-17T21:29:45.236Z,0
2022-11-17T21:30:45.228Z,0
2022-11-17T21:31:45.252Z,0
2022-11-17T21:32:45.203Z,0
2022-11-17T21:33:45.231Z,0
2022-11-17T21:34:45.189Z,0
2022-11-17T21:35:45.175Z,0
2022-11-17T21:36:45.165Z,0
2022-11-17T21:37:45.167Z,0
2022-11-17T21:38:45.147Z,0
2022-11-17T21:39:45.174Z,0
2022-11-17T21:40:45.129Z,0
2022-11-17T21:41:45.125Z,0
2022-11-17T21:42:45.105Z,0